sensor_id;sensor_type;location;lat;lon;timestamp;P1;durP1;ratioP1;P2;durP2;ratioP2
12792;SDS011;6460;42.684;23.260;2022-08-21T19:02:21;10.98;;;8.88;;
12792;SDS011;6460;42.684;23.260;2022-08-21T19:04:49;12.97;;;11.63;;
12792;SDS011;6460;42.684;23.260;2022-08-21T19:07:16;15.40;;;13.23;;
12792;SDS011;6460;42.684;23.260;2022-08-21T19:09:44;8.90;;;7.53;;
12792;SDS011;6460;42.684;23.260;2022-08-21T19:12:10;10.00;;;7.73;;
12792;SDS011;6460;42.684;23.260;2022-08-21T19:14:43;10.63;;;8.43;;
12792;SDS011;6460;42.684;23.260;2022-08-21T19:17:10;11.37;;;8.63;;
12792;SDS011;6460;42.684;23.260;2022-08-21T19:19:40;8.87;;;7.97;;
12792;SDS011;6460;42.684;23.260;2022-08-21T19:22:07;10.43;;;8.13;;
12792;SDS011;6460;42.684;23.260;2022-08-21T19:24:34;9.00;;;8.20;;
12792;SDS011;6460;42.684;23.260;2022-08-21T19:27:01;10.30;;;7.60;;
12792;SDS011;6460;42.684;23.260;2022-08-21T19:29:28;10.73;;;8.30;;
12792;SDS011;6460;42.684;23.260;2022-08-21T19:31:55;9.20;;;8.00;;
12792;SDS011;6460;42.684;23.260;2022-08-21T19:34:23;7.83;;;7.07;;
12792;SDS011;6460;42.684;23.260;2022-08-21T19:36:54;9.77;;;7.83;;
12792;SDS011;6460;42.684;23.260;2022-08-21T19:39:22;9.27;;;7.83;;
12792;SDS011;6460;42.684;23.260;2022-08-21T19:41:51;11.03;;;7.23;;
12792;SDS011;6460;42.684;23.260;2022-08-21T19:44:21;9.77;;;7.27;;
12792;SDS011;6460;42.684;23.260;2022-08-21T19:46:50;8.43;;;6.93;;
12792;SDS011;6460;42.684;23.260;2022-08-21T19:49:20;7.37;;;6.63;;
12792;SDS011;6460;42.684;23.260;2022-08-21T19:51:50;7.50;;;6.70;;
12792;SDS011;6460;42.684;23.260;2022-08-21T19:54:19;8.67;;;7.00;;
12792;SDS011;6460;42.684;23.260;2022-08-21T19:56:47;8.00;;;7.20;;
12792;SDS011;6460;42.684;23.260;2022-08-21T19:59:15;9.03;;;7.27;;
12792;SDS011;6460;42.684;23.260;2022-08-21T20:01:43;8.70;;;7.17;;
12792;SDS011;6460;42.684;23.260;2022-08-21T20:04:10;12.93;;;11.60;;
12792;SDS011;6460;42.684;23.260;2022-08-21T20:06:37;14.77;;;13.03;;
12792;SDS011;6460;42.684;23.260;2022-08-21T20:09:05;11.60;;;10.40;;
12792;SDS011;6460;42.684;23.260;2022-08-21T20:11:36;12.50;;;9.90;;
12792;SDS011;6460;42.684;23.260;2022-08-21T20:14:05;12.40;;;9.67;;
12792;SDS011;6460;42.684;23.260;2022-08-21T20:16:34;10.63;;;9.50;;
12792;SDS011;6460;42.684;23.260;2022-08-21T20:19:02;12.03;;;9.43;;
12792;SDS011;6460;42.684;23.260;2022-08-21T20:21:29;10.47;;;8.20;;
12792;SDS011;6460;42.684;23.260;2022-08-21T20:23:57;8.60;;;7.23;;
12792;SDS011;6460;42.684;23.260;2022-08-21T20:26:24;9.53;;;8.07;;
12792;SDS011;6460;42.684;23.260;2022-08-21T20:28:53;8.13;;;7.33;;
12792;SDS011;6460;42.684;23.260;2022-08-21T20:31:21;10.37;;;6.90;;
12792;SDS011;6460;42.684;23.260;2022-08-21T20:33:48;7.77;;;6.77;;
12792;SDS011;6460;42.684;23.260;2022-08-21T20:36:16;8.27;;;7.47;;
12792;SDS011;6460;42.684;23.260;2022-08-21T20:38:43;8.27;;;7.50;;
12792;SDS011;6460;42.684;23.260;2022-08-21T20:41:10;9.80;;;7.53;;
12792;SDS011;6460;42.684;23.260;2022-08-21T20:43:39;8.07;;;7.27;;
12792;SDS011;6460;42.684;23.260;2022-08-21T20:46:08;8.87;;;6.63;;
12792;SDS011;6460;42.684;23.260;2022-08-21T20:48:36;8.50;;;6.97;;
12792;SDS011;6460;42.684;23.260;2022-08-21T20:51:06;8.37;;;7.23;;
12792;SDS011;6460;42.684;23.260;2022-08-21T20:53:40;7.93;;;7.13;;
12792;SDS011;6460;42.684;23.260;2022-08-21T20:56:14;8.33;;;7.53;;
12792;SDS011;6460;42.684;23.260;2022-08-21T20:58:46;9.00;;;7.20;;
12792;SDS011;6460;42.684;23.260;2022-08-21T21:01:22;9.03;;;7.87;;
12792;SDS011;6460;42.684;23.260;2022-08-21T21:03:52;7.90;;;7.20;;
12792;SDS011;6460;42.684;23.260;2022-08-21T21:06:27;8.90;;;7.40;;
12792;SDS011;6460;42.684;23.260;2022-08-21T21:08:57;8.90;;;8.00;;
12792;SDS011;6460;42.684;23.260;2022-08-21T21:11:33;8.73;;;7.83;;
12792;SDS011;6460;42.684;23.260;2022-08-21T21:14:04;9.90;;;8.90;;
12792;SDS011;6460;42.684;23.260;2022-08-21T21:16:39;9.57;;;8.13;;
12792;SDS011;6460;42.684;23.260;2022-08-21T21:19:09;9.80;;;8.80;;
12792;SDS011;6460;42.684;23.260;2022-08-21T21:21:41;10.03;;;8.97;;
12792;SDS011;6460;42.684;23.260;2022-08-21T21:24:12;8.70;;;7.37;;
12792;SDS011;6460;42.684;23.260;2022-08-21T21:26:44;8.97;;;7.37;;
12792;SDS011;6460;42.684;23.260;2022-08-21T21:29:17;10.53;;;7.63;;
12792;SDS011;6460;42.684;23.260;2022-08-21T21:31:47;8.07;;;7.27;;
12792;SDS011;6460;42.684;23.260;2022-08-21T21:34:17;8.13;;;6.77;;
12792;SDS011;6460;42.684;23.260;2022-08-21T21:36:46;8.77;;;6.70;;
12792;SDS011;6460;42.684;23.260;2022-08-21T21:39:18;8.13;;;6.50;;
12792;SDS011;6460;42.684;23.260;2022-08-21T21:41:56;7.07;;;6.23;;
12792;SDS011;6460;42.684;23.260;2022-08-21T21:44:52;8.23;;;6.63;;
12792;SDS011;6460;42.684;23.260;2022-08-21T21:47:32;9.23;;;6.70;;
12792;SDS011;6460;42.684;23.260;2022-08-21T21:50:14;8.20;;;6.23;;
12792;SDS011;6460;42.684;23.260;2022-08-21T21:52:58;7.53;;;6.67;;
12792;SDS011;6460;42.684;23.260;2022-08-21T21:55:39;8.37;;;7.23;;
12792;SDS011;6460;42.684;23.260;2022-08-21T21:58:36;8.83;;;7.07;;
12792;SDS011;6460;42.684;23.260;2022-08-21T22:01:30;7.47;;;6.77;;
12792;SDS011;6460;42.684;23.260;2022-08-21T22:04:06;8.73;;;7.83;;
12792;SDS011;6460;42.684;23.260;2022-08-21T22:06:43;9.27;;;6.90;;
12792;SDS011;6460;42.684;23.260;2022-08-21T22:09:19;9.87;;;8.87;;
12792;SDS011;6460;42.684;23.260;2022-08-21T22:11:59;8.07;;;7.27;;
12792;SDS011;6460;42.684;23.260;2022-08-21T22:14:34;8.57;;;6.63;;
12792;SDS011;6460;42.684;23.260;2022-08-21T22:17:07;7.53;;;6.83;;
12792;SDS011;6460;42.684;23.260;2022-08-21T22:19:43;8.87;;;8.00;;
12792;SDS011;6460;42.684;23.260;2022-08-21T22:22:13;8.33;;;7.50;;
12792;SDS011;6460;42.684;23.260;2022-08-21T22:24:43;8.10;;;7.00;;
12792;SDS011;6460;42.684;23.260;2022-08-21T22:27:14;8.03;;;7.03;;
12792;SDS011;6460;42.684;23.260;2022-08-21T22:29:45;8.23;;;6.80;;
12792;SDS011;6460;42.684;23.260;2022-08-21T22:32:20;7.93;;;7.13;;
12792;SDS011;6460;42.684;23.260;2022-08-21T22:35:05;8.57;;;7.33;;
12792;SDS011;6460;42.684;23.260;2022-08-21T22:37:40;7.30;;;6.60;;
12792;SDS011;6460;42.684;23.260;2022-08-21T22:40:11;8.00;;;7.20;;
12792;SDS011;6460;42.684;23.260;2022-08-21T22:42:40;8.67;;;7.33;;
12792;SDS011;6460;42.684;23.260;2022-08-21T22:45:08;9.47;;;7.13;;
12792;SDS011;6460;42.684;23.260;2022-08-21T22:47:36;7.40;;;6.57;;
12792;SDS011;6460;42.684;23.260;2022-08-21T22:50:16;7.97;;;7.03;;
12792;SDS011;6460;42.684;23.260;2022-08-21T22:52:46;8.33;;;6.73;;
12792;SDS011;6460;42.684;23.260;2022-08-21T22:55:17;9.23;;;6.57;;
12792;SDS011;6460;42.684;23.260;2022-08-21T22:57:58;11.67;;;6.80;;
12792;SDS011;6460;42.684;23.260;2022-08-21T23:00:38;8.53;;;6.87;;
12792;SDS011;6460;42.684;23.260;2022-08-21T23:03:14;7.53;;;6.83;;
12792;SDS011;6460;42.684;23.260;2022-08-21T23:05:46;7.83;;;6.93;;
12792;SDS011;6460;42.684;23.260;2022-08-21T23:08:14;7.20;;;6.57;;
12792;SDS011;6460;42.684;23.260;2022-08-21T23:10:47;8.53;;;7.27;;
12792;SDS011;6460;42.684;23.260;2022-08-21T23:13:15;7.87;;;7.23;;
12792;SDS011;6460;42.684;23.260;2022-08-21T23:15:45;9.60;;;8.10;;
12792;SDS011;6460;42.684;23.260;2022-08-21T23:18:19;8.23;;;7.43;;
12792;SDS011;6460;42.684;23.260;2022-08-21T23:20:58;9.00;;;8.10;;
12792;SDS011;6460;42.684;23.260;2022-08-21T23:23:33;10.47;;;8.13;;
12792;SDS011;6460;42.684;23.260;2022-08-21T23:26:16;9.57;;;8.23;;
12792;SDS011;6460;42.684;23.260;2022-08-21T23:28:56;10.33;;;8.10;;
12792;SDS011;6460;42.684;23.260;2022-08-21T23:31:31;8.93;;;8.13;;
12792;SDS011;6460;42.684;23.260;2022-08-21T23:34:11;9.07;;;8.23;;
12792;SDS011;6460;42.684;23.260;2022-08-21T23:36:52;10.40;;;7.80;;
12792;SDS011;6460;42.684;23.260;2022-08-21T23:39:48;8.73;;;7.17;;
12792;SDS011;6460;42.684;23.260;2022-08-21T23:42:31;8.67;;;7.87;;
12792;SDS011;6460;42.684;23.260;2022-08-21T23:45:14;8.20;;;7.40;;
12792;SDS011;6460;42.684;23.260;2022-08-21T23:47:50;9.97;;;7.70;;
12792;SDS011;6460;42.684;23.260;2022-08-21T23:50:27;10.67;;;8.27;;
12792;SDS011;6460;42.684;23.260;2022-08-21T23:53:04;8.53;;;7.73;;
12792;SDS011;6460;42.684;23.260;2022-08-21T23:55:47;8.10;;;7.20;;
12792;SDS011;6460;42.684;23.260;2022-08-21T23:58:26;8.83;;;7.93;;
